createdAt,value
2023-05-03T00:01:26.492Z,101159.45
2023-05-03T00:04:33.083Z,101153.42
2023-05-03T00:07:38.651Z,101155.25
2023-05-03T00:10:44.051Z,101151.67
2023-05-03T00:13:49.888Z,101153.66
2023-05-03T00:16:56.560Z,101153.04
2023-05-03T00:20:03.880Z,101161.67
2023-05-03T00:23:10.792Z,101173.03
2023-05-03T00:26:09.593Z,101174.62
2023-05-03T00:28:56.367Z,101173.53
2023-05-03T00:31:50.649Z,101178.83
2023-05-03T00:34:56.963Z,101175.61
2023-05-03T00:37:55.931Z,101175.48
2023-05-03T00:40:48.205Z,101181.17
2023-05-03T00:43:53.084Z,101174.61
2023-05-03T00:46:59.986Z,101177.59
2023-05-03T00:50:05.765Z,101180.17
2023-05-03T00:53:12.880Z,101190.90
2023-05-03T00:56:18.262Z,101186.34
2023-05-03T00:59:24.331Z,101190.67
2023-05-03T01:02:32.248Z,101185.70
2023-05-03T01:05:38.990Z,101182.89
2023-05-03T01:09:01.793Z,101183.36
2023-05-03T01:12:31.562Z,101189.64
2023-05-03T01:15:50.367Z,101190.86
2023-05-03T01:18:57.126Z,101194.80
2023-05-03T01:21:58.506Z,101186.66
2023-05-03T01:25:24.390Z,101191.44
2023-05-03T01:28:30.200Z,101194.91
2023-05-03T01:32:08.195Z,101186.77
2023-05-03T01:35:27.510Z,101182.92
2023-05-03T01:38:33.392Z,101181.56
2023-05-03T01:41:40.482Z,101182.77
2023-05-03T01:44:46.343Z,101182.50
2023-05-03T01:47:52.953Z,101189.19
2023-05-03T01:50:59.901Z,101187.92
2023-05-03T01:54:06.873Z,101193.09
2023-05-03T01:57:12.856Z,101193.81
2023-05-03T02:00:18.578Z,101195.16
2023-05-03T02:03:24.473Z,101190.32
2023-05-03T02:06:29.265Z,101192.66
2023-05-03T02:09:35.453Z,101192.95
2023-05-03T02:12:41.356Z,101193.30
2023-05-03T02:15:48.416Z,101203.01
2023-05-03T02:18:48.707Z,101207.20
2023-05-03T02:21:47.816Z,101203.14
2023-05-03T02:24:57.455Z,101205.94
2023-05-03T02:28:03.849Z,101205.92
2023-05-03T02:31:12.159Z,101215.67
2023-05-03T02:34:18.900Z,101213.70
2023-05-03T02:37:24.378Z,101211.30
2023-05-03T02:40:29.962Z,101213.39
2023-05-03T02:43:35.992Z,101217.27
2023-05-03T02:46:41.753Z,101219.05
2023-05-03T02:49:42.513Z,101213.50
2023-05-03T02:52:48.476Z,101219.65
2023-05-03T02:55:55.376Z,101223.77
2023-05-03T02:59:02.285Z,101224.33
2023-05-03T03:02:08.009Z,101222.16
2023-05-03T03:05:15.874Z,101223.27
2023-05-03T03:08:23.467Z,101223.20
2023-05-03T03:11:30.965Z,101230.66
2023-05-03T03:14:36.563Z,101231.47
2023-05-03T03:17:43.956Z,101233.28
2023-05-03T03:20:49.983Z,101232.01
2023-05-03T03:23:56.028Z,101239.77
2023-05-03T03:27:01.784Z,101241.71
2023-05-03T03:30:08.302Z,101247.01
2023-05-03T03:33:16.848Z,101248.86
2023-05-03T03:36:22.975Z,101249.45
2023-05-03T03:39:27.984Z,101248.03
2023-05-03T03:42:34.092Z,101250.40
2023-05-03T03:45:39.642Z,101257.23
2023-05-03T03:48:45.548Z,101259.16
2023-05-03T03:51:51.504Z,101254.61
2023-05-03T03:54:58.034Z,101259.16
2023-05-03T03:57:59.173Z,101259.80
2023-05-03T04:01:07.655Z,101265.09
2023-05-03T04:04:14.499Z,101263.91
2023-05-03T04:07:20.397Z,101260.50
2023-05-03T04:10:27.393Z,101263.97
2023-05-03T04:13:34.285Z,101263.38
2023-05-03T04:16:40.016Z,101254.28
2023-05-03T04:19:46.507Z,101255.42
2023-05-03T04:22:52.266Z,101250.72
2023-05-03T04:26:00.899Z,101255.17
2023-05-03T04:29:07.066Z,101256.92
2023-05-03T04:32:13.453Z,101262.41
2023-05-03T04:35:20.341Z,101258.59
2023-05-03T04:38:27.440Z,101259.39
2023-05-03T04:41:34.324Z,101265.47
2023-05-03T04:44:40.835Z,101265.33
2023-05-03T04:47:46.763Z,101274.98
2023-05-03T04:50:53.639Z,101275.38
2023-05-03T04:54:00.601Z,101278.83
2023-05-03T04:57:06.024Z,101274.50
2023-05-03T05:00:14.636Z,101277.05
2023-05-03T05:03:22.326Z,101282.86
2023-05-03T05:06:27.576Z,101277.80
2023-05-03T05:09:39.515Z,101287.05
2023-05-03T05:12:38.209Z,101288.52
2023-05-03T05:15:42.065Z,101291.03
2023-05-03T05:18:48.631Z,101292.70
2023-05-03T05:21:56.871Z,101287.63
2023-05-03T05:25:05.123Z,101291.84
2023-05-03T05:28:11.311Z,101293.91
2023-05-03T05:31:16.432Z,101291.00
2023-05-03T05:34:26.778Z,101292.51
2023-05-03T05:37:32.370Z,101295.59
2023-05-03T05:40:39.069Z,101293.79
2023-05-03T05:43:39.794Z,101294.58
2023-05-03T05:46:32.344Z,101297.23
2023-05-03T05:49:37.376Z,101289.16
2023-05-03T05:52:42.916Z,101282.78
2023-05-03T05:55:48.319Z,101284.58
2023-05-03T05:58:53.724Z,101291.19
2023-05-03T06:01:59.475Z,101293.48
2023-05-03T06:05:07.693Z,101291.92
2023-05-03T06:08:12.444Z,101289.70
2023-05-03T06:11:21.316Z,101291.37
2023-05-03T06:14:27.834Z,101289.54
2023-05-03T06:17:34.206Z,101286.61
2023-05-03T06:20:40.970Z,101287.14
2023-05-03T06:23:46.746Z,101287.08
2023-05-03T06:26:53.099Z,101285.91
2023-05-03T06:29:58.482Z,101291.28
2023-05-03T06:33:04.550Z,101289.07
2023-05-03T06:36:10.322Z,101293.73
2023-05-03T06:39:18.042Z,101290.55
2023-05-03T06:42:23.725Z,101290.42
2023-05-03T06:45:39.092Z,101286.42
2023-05-03T06:48:44.226Z,101291.00
2023-05-03T06:51:44.830Z,101291.70
2023-05-03T06:54:50.364Z,101285.56
2023-05-03T06:58:00.501Z,101288.13
2023-05-03T07:01:08.560Z,101290.81
2023-05-03T07:04:14.064Z,101290.45
2023-05-03T07:07:19.666Z,101286.67
2023-05-03T07:10:25.144Z,101278.39
2023-05-03T07:13:30.358Z,101285.34
2023-05-03T07:16:35.309Z,101290.41
2023-05-03T07:19:40.715Z,101292.00
2023-05-03T07:22:46.148Z,101290.19
2023-05-03T07:25:50.696Z,101290.86
2023-05-03T07:28:56.162Z,101282.02
2023-05-03T07:32:02.013Z,101288.00
2023-05-03T07:35:07.312Z,101285.13
2023-05-03T07:38:13.159Z,101282.44
2023-05-03T07:41:18.686Z,101284.95
2023-05-03T07:44:23.606Z,101286.81
2023-05-03T07:47:29.283Z,101284.61
2023-05-03T07:50:35.253Z,101291.14
2023-05-03T07:53:43.924Z,101285.14
2023-05-03T07:56:49.551Z,101287.95
2023-05-03T07:59:55.198Z,101283.44
2023-05-03T08:03:03.964Z,101286.91
2023-05-03T08:06:09.713Z,101287.05
2023-05-03T08:09:16.119Z,101282.95
2023-05-03T08:12:25.126Z,101282.09
2023-05-03T08:15:31.419Z,101288.69
2023-05-03T08:18:36.834Z,101285.03
2023-05-03T08:21:42.390Z,101280.56
2023-05-03T08:24:47.033Z,101278.25
2023-05-03T08:27:52.632Z,101278.13
2023-05-03T08:30:59.633Z,101274.72
2023-05-03T08:34:05.761Z,101276.64
2023-05-03T08:37:05.626Z,101277.34
2023-05-03T08:40:13.000Z,101272.57
2023-05-03T08:43:22.441Z,101273.46
2023-05-03T08:46:27.711Z,101275.56
2023-05-03T08:49:33.865Z,101275.34
2023-05-03T08:52:41.677Z,101275.96
2023-05-03T08:55:49.256Z,101265.30
2023-05-03T08:58:55.834Z,101260.37
2023-05-03T09:02:01.770Z,101259.53
2023-05-03T09:05:07.361Z,101260.03
2023-05-03T09:08:23.929Z,101260.80
2023-05-03T09:11:41.738Z,101259.32
2023-05-03T09:14:49.135Z,101255.49
2023-05-03T09:17:55.645Z,101251.91
2023-05-03T09:21:02.729Z,101256.70
2023-05-03T09:24:10.181Z,101255.23
2023-05-03T09:27:17.478Z,101246.38
2023-05-03T09:30:35.872Z,101247.98
2023-05-03T09:33:44.566Z,101240.92
2023-05-03T09:37:02.914Z,101240.78
2023-05-03T09:40:10.766Z,101231.61
2023-05-03T09:43:24.278Z,101232.78
2023-05-03T09:46:31.899Z,101230.59
2023-05-03T09:49:37.187Z,101232.82
2023-05-03T09:52:45.152Z,101232.69
2023-05-03T09:55:54.807Z,101229.07
2023-05-03T09:58:59.576Z,101227.81
2023-05-03T10:02:09.219Z,101232.06
2023-05-03T10:05:14.098Z,101230.14
2023-05-03T10:08:19.368Z,101232.51
2023-05-03T10:11:24.612Z,101235.72
2023-05-03T10:14:29.704Z,101233.70
2023-05-03T10:17:46.924Z,101229.64
2023-05-03T10:20:59.299Z,101228.70
2023-05-03T10:24:29.851Z,101226.56
2023-05-03T10:27:37.469Z,101224.13
2023-05-03T10:30:45.605Z,101222.84
2023-05-03T10:33:50.524Z,101222.74
2023-05-03T10:36:59.279Z,101216.66
2023-05-03T10:40:06.236Z,101221.48
2023-05-03T10:43:11.625Z,101213.35
2023-05-03T10:46:22.149Z,101220.92
2023-05-03T10:49:33.740Z,101218.05
2023-05-03T10:52:56.769Z,101218.36
2023-05-03T10:56:26.263Z,101218.48
2023-05-03T10:59:32.288Z,101206.54
2023-05-03T11:02:39.842Z,101215.71
2023-05-03T11:05:45.053Z,101217.41
2023-05-03T11:08:50.771Z,101216.16
2023-05-03T11:11:56.133Z,101213.37
2023-05-03T11:15:03.762Z,101217.19
2023-05-03T11:18:10.527Z,101211.45
2023-05-03T11:21:15.961Z,101204.61
2023-05-03T11:24:20.989Z,101205.36
2023-05-03T11:27:27.199Z,101202.81
2023-05-03T11:30:33.269Z,101199.19
2023-05-03T11:33:41.518Z,101198.02
2023-05-03T11:36:46.602Z,101194.59
2023-05-03T11:39:51.541Z,101192.89
2023-05-03T11:43:14.412Z,101197.70
2023-05-03T11:46:19.910Z,101194.28
2023-05-03T11:49:26.018Z,101194.16
2023-05-03T11:52:37.683Z,101199.17
2023-05-03T11:55:44.202Z,101197.89
2023-05-03T11:58:50.076Z,101193.00
2023-05-03T12:01:56.426Z,101184.67
2023-05-03T12:05:04.536Z,101182.86
2023-05-03T12:08:14.279Z,101177.51
2023-05-03T12:11:19.212Z,101181.99
2023-05-03T12:14:26.388Z,101184.77
2023-05-03T12:17:51.152Z,101177.11
2023-05-03T12:21:30.512Z,101173.16
2023-05-03T12:24:05.825Z,101171.67
2023-05-03T12:27:10.068Z,101172.73
2023-05-03T12:30:18.438Z,101173.58
2023-05-03T12:33:28.199Z,101171.77
2023-05-03T12:36:37.471Z,101164.84
2023-05-03T12:39:41.223Z,101166.34
2023-05-03T12:42:48.989Z,101157.57
2023-05-03T12:46:25.126Z,101161.94
2023-05-03T12:49:06.744Z,101159.81
2023-05-03T12:52:36.246Z,101153.32
2023-05-03T12:55:17.958Z,101142.86
2023-05-03T13:04:57.202Z,101141.87
2023-05-03T13:07:44.210Z,101141.34
2023-05-03T13:10:55.135Z,101134.38
2023-05-03T13:14:00.633Z,101134.48
2023-05-03T13:17:06.540Z,101134.92
2023-05-03T13:20:14.144Z,101131.80
2023-05-03T13:23:19.185Z,101128.50
2023-05-03T13:26:26.074Z,101126.32
2023-05-03T13:29:31.802Z,101134.09
2023-05-03T13:32:36.412Z,101131.23
2023-05-03T13:35:42.295Z,101133.47
2023-05-03T13:38:48.919Z,101132.89
2023-05-03T13:41:57.102Z,101135.34
2023-05-03T13:45:03.480Z,101126.14
2023-05-03T13:48:18.288Z,101133.77
2023-05-03T13:51:26.688Z,101129.83
2023-05-03T13:54:33.346Z,101132.23
2023-05-03T13:57:39.105Z,101126.99
2023-05-03T14:00:44.923Z,101122.70
2023-05-03T14:03:51.855Z,101124.63
2023-05-03T14:06:43.416Z,101118.15
2023-05-03T14:09:50.077Z,101117.94
2023-05-03T14:12:57.251Z,101114.09
2023-05-03T14:16:03.011Z,101107.53
2023-05-03T14:19:11.469Z,101110.70
2023-05-03T14:22:18.069Z,101105.78
2023-05-03T14:25:24.627Z,101107.91
2023-05-03T14:28:30.217Z,101110.41
2023-05-03T14:31:36.028Z,101099.86
2023-05-03T14:34:42.489Z,101102.70
2023-05-03T14:37:48.521Z,101101.72
2023-05-03T14:40:55.090Z,101103.22
2023-05-03T14:44:01.614Z,101092.23
2023-05-03T14:47:07.419Z,101092.59
2023-05-03T14:50:13.748Z,101094.91
2023-05-03T14:53:12.339Z,101097.03
2023-05-03T14:56:17.982Z,101088.28
2023-05-03T14:59:23.562Z,101090.28
2023-05-03T15:02:29.338Z,101089.19
2023-05-03T15:05:35.379Z,101087.03
2023-05-03T15:08:40.933Z,101083.48
2023-05-03T15:11:48.721Z,101087.17
2023-05-03T15:14:53.891Z,101084.70
2023-05-03T15:18:00.506Z,101085.83
2023-05-03T15:21:07.084Z,101082.50
2023-05-03T15:24:05.891Z,101084.59
2023-05-03T15:27:11.540Z,101085.02
2023-05-03T15:30:18.656Z,101087.92
2023-05-03T15:33:24.487Z,101081.36
2023-05-03T15:36:30.474Z,101080.57
2023-05-03T15:39:35.514Z,101083.47
2023-05-03T15:42:41.879Z,101081.69
2023-05-03T15:45:49.266Z,101085.11
2023-05-03T15:48:54.901Z,101088.31
2023-05-03T15:52:00.493Z,101087.05
2023-05-03T15:55:05.952Z,101085.15
2023-05-03T15:58:14.052Z,101091.31
2023-05-03T16:01:20.485Z,101087.16
2023-05-03T16:04:25.791Z,101084.07
2023-05-03T16:07:33.736Z,101082.31
2023-05-03T16:10:39.463Z,101083.47
2023-05-03T16:13:45.141Z,101087.59
2023-05-03T16:16:53.849Z,101083.42
2023-05-03T16:19:59.879Z,101091.07
2023-05-03T16:23:04.931Z,101089.33
2023-05-03T16:26:11.388Z,101092.73
2023-05-03T16:29:17.309Z,101092.02
2023-05-03T16:32:23.650Z,101093.71
2023-05-03T16:35:29.642Z,101102.08
2023-05-03T16:38:37.380Z,101105.13
2023-05-03T16:41:43.629Z,101106.45
2023-05-03T16:44:49.377Z,101103.64
2023-05-03T16:47:55.476Z,101103.02
2023-05-03T16:51:01.087Z,101102.94
2023-05-03T16:54:06.851Z,101101.81
2023-05-03T16:57:12.393Z,101099.45
2023-05-03T17:00:19.350Z,101094.02
2023-05-03T17:03:26.000Z,101097.66
2023-05-03T17:06:33.461Z,101096.36
2023-05-03T17:09:38.260Z,101095.72
2023-05-03T17:12:44.471Z,101109.62
2023-05-03T17:15:51.801Z,101106.22
2023-05-03T17:18:58.465Z,101111.54
2023-05-03T17:22:04.845Z,101107.27
2023-05-03T17:25:13.505Z,101111.57
2023-05-03T17:28:19.113Z,101118.61
2023-05-03T17:31:23.776Z,101112.26
2023-05-03T17:34:29.648Z,101113.47
2023-05-03T17:37:35.991Z,101115.34
2023-05-03T17:40:41.719Z,101123.55
2023-05-03T17:43:51.636Z,101112.73
2023-05-03T17:46:57.832Z,101117.69
2023-05-03T17:50:03.841Z,101121.09
2023-05-03T17:53:09.962Z,101118.70
2023-05-03T17:56:15.256Z,101114.55
2023-05-03T17:59:21.513Z,101115.37
2023-05-03T18:02:28.013Z,101110.11
2023-05-03T18:05:33.868Z,101112.32
2023-05-03T18:08:39.701Z,101111.58
2023-05-03T18:11:46.264Z,101108.48
2023-05-03T18:14:52.083Z,101112.73
2023-05-03T18:17:58.639Z,101113.40
2023-05-03T18:21:19.107Z,101112.31
2023-05-03T18:24:25.969Z,101108.32
2023-05-03T18:27:32.067Z,101113.94
2023-05-03T18:30:37.845Z,101114.42
2023-05-03T18:33:43.301Z,101112.34
2023-05-03T18:36:48.818Z,101120.17
2023-05-03T18:39:54.125Z,101119.12
2023-05-03T18:43:00.798Z,101121.44
2023-05-03T18:46:06.328Z,101118.87
2023-05-03T18:49:12.503Z,101117.77
2023-05-03T18:52:18.288Z,101116.02
2023-05-03T18:55:24.312Z,101114.11
2023-05-03T18:58:30.535Z,101117.83
2023-05-03T19:01:37.100Z,101115.77
2023-05-03T19:04:42.986Z,101111.94
2023-05-03T19:07:50.279Z,101114.63
2023-05-03T19:10:56.484Z,101113.00
2023-05-03T19:14:02.412Z,101105.61
2023-05-03T19:17:08.879Z,101113.42
2023-05-03T19:20:14.348Z,101106.92
2023-05-03T19:23:19.881Z,101109.61
2023-05-03T19:26:25.642Z,101103.38
2023-05-03T19:29:30.805Z,101103.11
2023-05-03T19:32:36.091Z,101104.94
2023-05-03T19:35:42.607Z,101098.91
2023-05-03T19:38:43.084Z,101103.86
2023-05-03T19:41:29.438Z,101101.77
2023-05-03T19:44:28.972Z,101102.23
2023-05-03T19:47:34.238Z,101101.14
2023-05-03T19:50:39.885Z,101105.70
2023-05-03T19:53:48.562Z,101100.31
2023-05-03T19:56:53.618Z,101093.91
2023-05-03T19:59:59.387Z,101090.41
2023-05-03T20:03:05.280Z,101098.41
2023-05-03T20:06:10.916Z,101089.70
2023-05-03T20:09:18.121Z,101088.23
2023-05-03T20:12:23.820Z,101091.63
2023-05-03T20:15:29.214Z,101086.46
2023-05-03T20:18:35.447Z,101080.94
2023-05-03T20:21:40.703Z,101080.75
2023-05-03T20:24:46.352Z,101076.44
2023-05-03T20:27:52.812Z,101080.83
2023-05-03T20:30:58.459Z,101084.22
2023-05-03T20:34:04.799Z,101090.48
2023-05-03T20:37:09.984Z,101089.50
2023-05-03T20:40:15.411Z,101086.23
2023-05-03T20:43:20.933Z,101081.23
2023-05-03T20:46:26.085Z,101079.45
2023-05-03T20:49:31.627Z,101079.38
2023-05-03T20:52:37.851Z,101073.70
2023-05-03T20:55:42.801Z,101073.52
2023-05-03T20:58:48.606Z,101073.52
2023-05-03T21:01:55.006Z,101072.44
2023-05-03T21:05:00.799Z,101079.19
2023-05-03T21:08:06.355Z,101080.84
2023-05-03T21:11:15.152Z,101068.88
2023-05-03T21:14:21.817Z,101073.60
2023-05-03T21:17:27.581Z,101076.77
2023-05-03T21:20:33.190Z,101077.09
2023-05-03T21:23:38.886Z,101072.06
2023-05-03T21:26:45.054Z,101079.23
2023-05-03T21:29:51.736Z,101081.19
2023-05-03T21:32:57.077Z,101082.48
2023-05-03T21:36:03.616Z,101087.64
2023-05-03T21:39:08.612Z,101089.95
2023-05-03T21:42:14.863Z,101085.43
2023-05-03T21:45:20.454Z,101083.80
2023-05-03T21:48:26.088Z,101082.36
2023-05-03T21:51:36.328Z,101082.09
2023-05-03T21:54:42.834Z,101085.56
2023-05-03T21:57:47.884Z,101080.53
2023-05-03T22:00:52.863Z,101087.12
2023-05-03T22:03:59.987Z,101084.12
2023-05-03T22:07:05.683Z,101082.83
2023-05-03T22:10:12.079Z,101080.52
2023-05-03T22:13:17.893Z,101075.70
2023-05-03T22:16:23.883Z,101075.50
2023-05-03T22:19:30.934Z,101077.37
2023-05-03T22:22:37.013Z,101078.84
2023-05-03T22:25:42.239Z,101086.05
2023-05-03T22:28:47.294Z,101080.95
2023-05-03T22:31:53.542Z,101084.69
2023-05-03T22:34:59.177Z,101079.00
2023-05-03T22:38:04.870Z,101077.28
2023-05-03T22:41:09.907Z,101073.70
2023-05-03T22:44:14.536Z,101077.64
2023-05-03T22:47:20.451Z,101076.04
2023-05-03T22:50:25.499Z,101072.11
2023-05-03T22:53:31.820Z,101076.86
2023-05-03T22:56:37.591Z,101078.08
2023-05-03T22:59:44.871Z,101080.45
2023-05-03T23:02:50.196Z,101079.67
2023-05-03T23:05:56.587Z,101079.69
2023-05-03T23:09:01.910Z,101078.19
2023-05-03T23:12:08.706Z,101083.67
2023-05-03T23:15:13.981Z,101081.75
2023-05-03T23:18:21.138Z,101069.77
2023-05-03T23:21:26.232Z,101075.48
2023-05-03T23:24:32.619Z,101071.34
2023-05-03T23:27:39.431Z,101067.67
2023-05-03T23:30:44.671Z,101058.77
2023-05-03T23:33:50.198Z,101071.34
2023-05-03T23:36:56.743Z,101063.17
2023-05-03T23:40:02.633Z,101062.73
2023-05-03T23:43:07.965Z,101055.84
2023-05-03T23:46:13.744Z,101068.88
2023-05-03T23:49:19.621Z,101066.92
2023-05-03T23:52:27.527Z,101064.82
2023-05-03T23:55:32.550Z,101064.47
2023-05-03T23:58:38.597Z,101065.23
